Time;durP1;ratioP1;P1;durP2;ratioP2;P2;SDS_P1;SDS_P2;PMS_P1;PMS_P2;Temp;Humidity;BMP_temperature;BMP_pressure;BME280_temperature;BME280_humidity;BME280_pressure;Samples;Min_cycle;Max_cycle;Signal;HPM_P1;HPM_P2
2021/01/13 00:01:02;;;;;;;0.98;0.98;;;19.70;54.00;;;;;;5083815;28;20044;-64
2021/01/13 00:03:29;;;;;;;1.58;1.48;;;19.80;54.00;;;;;;5085208;28;20537;-64
2021/01/13 00:05:55;;;;;;;1.75;1.65;;;19.70;54.00;;;;;;5075554;28;20044;-64
2021/01/13 00:08:23;;;;;;;1.05;0.98;;;19.70;53.90;;;;;;5077911;28;20068;-64
2021/01/13 00:10:49;;;;;;;1.88;1.77;;;19.70;53.90;;;;;;5091463;28;20749;-64
2021/01/13 00:13:16;;;;;;;2.50;1.42;;;19.70;53.80;;;;;;5084630;28;20469;-64
2021/01/13 00:15:43;;;;;;;1.48;0.95;;;19.70;53.80;;;;;;5084246;28;20093;-65
2021/01/13 00:18:09;;;;;;;1.48;1.38;;;19.70;53.70;;;;;;5081307;28;20044;-65
2021/01/13 00:20:36;;;;;;;2.70;1.17;;;19.70;53.70;;;;;;5083263;28;20048;-66
2021/01/13 00:23:02;;;;;;;31.83;13.55;;;19.70;53.70;;;;;;5085960;28;20051;-66
2021/01/13 00:25:29;;;;;;;26.70;12.85;;;19.70;53.70;;;;;;5088822;28;20040;-66
2021/01/13 00:27:56;;;;;;;21.58;11.00;;;19.70;53.70;;;;;;5087875;28;20102;-66
2021/01/13 00:30:23;;;;;;;20.65;11.98;;;19.70;53.70;;;;;;5086997;28;20052;-66
2021/01/13 00:32:49;;;;;;;19.42;10.43;;;19.70;53.70;;;;;;5088434;28;20146;-66
2021/01/13 00:35:17;;;;;;;26.35;11.23;;;19.70;53.70;;;;;;5087702;28;20051;-65
2021/01/13 00:37:44;;;;;;;16.67;10.70;;;19.70;53.60;;;;;;5090852;28;20077;-65
2021/01/13 00:40:11;;;;;;;17.13;10.25;;;19.70;53.50;;;;;;5086673;28;20052;-65
2021/01/13 00:42:46;;;;;;;15.93;9.07;;;19.70;53.50;;;;;;5087217;28;20080;-65
2021/01/13 00:45:15;;;;;;;17.20;9.17;;;19.70;53.40;;;;;;5086495;28;20523;-65
2021/01/13 00:47:42;;;;;;;20.73;9.82;;;19.70;53.40;;;;;;5087289;28;20548;-65
2021/01/13 00:50:10;;;;;;;13.27;8.23;;;19.70;53.40;;;;;;5089290;28;20040;-65
2021/01/13 00:52:37;;;;;;;21.23;8.90;;;19.70;53.40;;;;;;5089615;28;20462;-65
2021/01/13 00:55:04;;;;;;;18.45;9.05;;;19.70;53.30;;;;;;5087395;28;20155;-65
2021/01/13 00:57:31;;;;;;;18.15;8.50;;;19.70;53.20;;;;;;5082752;28;20136;-65
2021/01/13 00:59:59;;;;;;;11.52;6.70;;;19.70;53.10;;;;;;5097525;28;20042;-66
2021/01/13 01:02:25;;;;;;;18.63;7.97;;;19.70;53.10;;;;;;5085710;28;20064;-66
2021/01/13 01:04:51;;;;;;;20.75;8.57;;;19.70;53.10;;;;;;5090390;28;20518;-66
2021/01/13 01:07:18;;;;;;;12.38;8.65;;;19.70;53.10;;;;;;5084049;28;20090;-65
2021/01/13 01:09:44;;;;;;;17.48;7.50;;;19.70;53.10;;;;;;5087602;28;20043;-66
2021/01/13 01:12:11;;;;;;;15.02;7.68;;;19.70;53.10;;;;;;5085282;28;20040;-66
2021/01/13 01:14:38;;;;;;;15.38;6.43;;;19.70;53.10;;;;;;5086701;28;20044;-66
2021/01/13 01:17:10;;;;;;;9.93;6.85;;;19.70;53.10;;;;;;5084798;28;20040;-65
2021/01/13 01:19:37;;;;;;;10.73;6.82;;;19.70;53.10;;;;;;5087794;28;20056;-65
2021/01/13 01:22:04;;;;;;;10.93;6.95;;;19.70;53.70;;;;;;5085524;28;20093;-65
2021/01/13 01:24:31;;;;;;;11.80;6.38;;;19.70;53.10;;;;;;5084049;28;20135;-66
2021/01/13 01:26:58;;;;;;;14.43;6.63;;;19.70;53.10;;;;;;5084860;28;20036;-65
2021/01/13 01:29:24;;;;;;;7.55;4.82;;;19.70;53.10;;;;;;5085500;28;20086;-66
2021/01/13 01:31:52;;;;;;;9.88;4.75;;;19.70;53.00;;;;;;5090441;28;20457;-65
2021/01/13 01:34:20;;;;;;;11.82;6.63;;;19.70;53.10;;;;;;5085399;28;20075;-66
2021/01/13 01:36:46;;;;;;;11.75;5.35;;;19.70;53.00;;;;;;5085651;28;20138;-65
2021/01/13 01:39:13;;;;;;;10.38;5.57;;;19.70;53.10;;;;;;5084364;28;20048;-65
2021/01/13 01:41:43;;;;;;;6.20;4.80;;;19.70;53.10;;;;;;5086324;28;20454;-65
2021/01/13 01:44:10;;;;;;;10.20;4.97;;;19.70;53.10;;;;;;5086999;28;20127;-65
2021/01/13 01:46:39;;;;;;;7.78;4.60;;;19.70;53.10;;;;;;5090186;28;20048;-65
2021/01/13 01:49:06;;;;;;;9.32;5.25;;;19.60;53.00;;;;;;5085415;28;20122;-67
2021/01/13 01:51:42;;;;;;;7.50;3.53;;;19.60;53.00;;;;;;5085967;28;20044;-67
2021/01/13 01:54:17;;;;;;;8.68;4.25;;;19.70;52.90;;;;;;5085780;28;20797;-67
2021/01/13 01:56:44;;;;;;;6.53;4.30;;;19.70;52.90;;;;;;5085404;28;20040;-66
2021/01/13 01:59:12;;;;;;;8.02;4.15;;;19.60;52.90;;;;;;5087630;28;20083;-66
2021/01/13 02:01:40;;;;;;;6.53;3.40;;;19.60;52.90;;;;;;5088122;28;20606;-65
2021/01/13 02:04:14;;;;;;;8.18;3.90;;;19.60;52.80;;;;;;5084722;28;20500;-65
2021/01/13 02:07:21;;;;;;;4.78;3.85;;;19.60;52.90;;;;;;5085199;28;20048;-65
2021/01/13 02:09:48;;;;;;;;;;;19.60;52.90;;;;;;5085731;28;20048;-65
2021/01/13 02:12:19;;;;;;;4.93;3.08;;;19.60;52.90;;;;;;5084013;28;19920;-65
2021/01/13 02:14:45;;;;;;;6.65;3.47;;;19.50;53.00;;;;;;5085451;28;20507;-65
2021/01/13 02:17:12;;;;;;;6.90;3.78;;;19.60;53.00;;;;;;5086700;28;20068;-65
2021/01/13 02:20:08;;;;;;;6.50;3.50;;;19.60;53.00;;;;;;5087934;28;20131;-65
2021/01/13 02:22:55;;;;;;;5.10;2.88;;;19.60;53.00;;;;;;5087672;28;20420;-65
2021/01/13 02:26:17;;;;;;;4.03;3.08;;;19.60;53.00;;;;;;5085832;28;20079;-65
2021/01/13 02:28:58;;;;;;;5.78;3.30;;;19.60;53.00;;;;;;5087692;28;20524;-65
2021/01/13 02:32:05;;;;;;;3.85;2.70;;;19.60;53.00;;;;;;5080205;28;20396;-65
2021/01/13 02:34:42;;;;;;;3.50;3.20;;;19.60;53.00;;;;;;5086830;28;20086;-65
2021/01/13 02:37:41;;;;;;;7.10;3.00;;;19.50;53.40;;;;;;5080226;28;20123;-65
2021/01/13 02:40:15;;;;;;;6.65;3.03;;;19.60;53.00;;;;;;5076466;28;20131;-65
2021/01/13 02:42:55;;;;;;;3.30;3.00;;;19.50;53.00;;;;;;5079929;28;20052;-65
2021/01/13 02:45:25;;;;;;;5.40;3.22;;;19.60;53.00;;;;;;5082173;28;20841;-65
2021/01/13 02:48:14;;;;;;;3.00;2.42;;;19.50;52.90;;;;;;5068789;28;20071;-65
2021/01/13 02:50:45;;;;;;;4.28;3.58;;;19.60;52.90;;;;;;5079527;28;20052;-65
2021/01/13 02:53:55;;;;;;;3.03;1.88;;;19.50;52.90;;;;;;5085287;28;20508;-65
2021/01/13 02:56:41;;;;;;;1.95;1.80;;;19.60;52.90;;;;;;5077396;28;20040;-65
2021/01/13 02:59:10;;;;;;;2.30;1.77;;;19.50;52.90;;;;;;5086039;28;20068;-65
2021/01/13 03:01:40;;;;;;;5.25;2.13;;;19.50;52.90;;;;;;5087941;28;20123;-65
2021/01/13 03:04:08;;;;;;;3.33;1.92;;;19.50;52.90;;;;;;5083814;28;20071;-65
2021/01/13 03:06:38;;;;;;;3.40;1.88;;;19.50;52.90;;;;;;5083991;28;20046;-65
2021/01/13 03:09:06;;;;;;;3.33;2.28;;;19.50;52.80;;;;;;5083901;28;20036;-65
2021/01/13 03:11:33;;;;;;;4.32;1.63;;;19.50;52.90;;;;;;5084787;28;20410;-65
2021/01/13 03:14:13;;;;;;;8.90;1.95;;;19.50;52.90;;;;;;5084714;28;20127;-66
2021/01/13 03:16:45;;;;;;;3.75;1.55;;;19.60;53.00;;;;;;5074268;28;20708;-64
2021/01/13 03:19:27;;;;;;;3.33;1.70;;;19.50;52.90;;;;;;5085291;28;20074;-63
2021/01/13 03:22:00;;;;;;;15.50;2.75;;;19.60;52.90;;;;;;5083526;28;20079;-63
2021/01/13 03:24:47;;;;;;;10.00;1.88;;;19.50;52.80;;;;;;5085229;28;20055;-65
2021/01/13 03:27:15;;;;;;;4.55;2.22;;;19.50;52.70;;;;;;5085936;28;20046;-65
2021/01/13 03:29:45;;;;;;;1.70;1.55;;;19.50;52.60;;;;;;5083585;28;20101;-65
2021/01/13 03:32:18;;;;;;;1.75;1.65;;;19.60;52.70;;;;;;5083136;28;20492;-65
2021/01/13 03:35:02;;;;;;;6.03;1.95;;;19.50;52.60;;;;;;5084790;28;20113;-64
2021/01/13 03:37:49;;;;;;;2.95;1.73;;;19.50;52.60;;;;;;5086588;28;20942;-64
2021/01/13 03:40:20;;;;;;;4.00;2.50;;;19.50;52.60;;;;;;5078282;28;20142;-64
2021/01/13 03:42:51;;;;;;;2.05;1.88;;;19.50;52.50;;;;;;5080645;28;20552;-64
2021/01/13 03:45:33;;;;;;;3.20;2.00;;;19.50;52.60;;;;;;5078898;28;20426;-64
2021/01/13 03:48:08;;;;;;;3.88;2.47;;;19.50;52.60;;;;;;5087023;28;20046;-64
2021/01/13 03:50:38;;;;;;;2.13;1.92;;;19.50;52.60;;;;;;5082080;28;20051;-64
2021/01/13 03:53:07;;;;;;;13.55;2.17;;;19.50;52.60;;;;;;5088899;28;20126;-64
2021/01/13 03:55:35;;;;;;;3.50;2.47;;;19.50;52.60;;;;;;5091292;28;20159;-64
2021/01/13 03:58:49;;;;;;;8.18;2.38;;;19.50;52.60;;;;;;5104632;28;20055;-64
2021/01/13 04:01:53;;;;;;;3.90;1.98;;;19.50;52.50;;;;;;5083983;28;20055;-64
2021/01/13 04:04:47;;;;;;;3.58;2.20;;;19.50;52.50;;;;;;5088699;28;20074;-65
2021/01/13 04:07:15;;;;;;;7.18;2.30;;;19.50;52.60;;;;;;5086361;28;20141;-64
2021/01/13 04:09:42;;;;;;;11.85;1.98;;;19.50;52.60;;;;;;5085847;28;20654;-65
2021/01/13 04:12:11;;;;;;;2.55;2.20;;;19.40;52.60;;;;;;5087289;28;20050;-65
2021/01/13 04:14:53;;;;;;;5.40;2.58;;;19.40;52.80;;;;;;5078999;22;20412;-65
2021/01/13 04:17:20;;;;;;;4.32;1.77;;;19.50;52.80;;;;;;5065098;28;20060;-65
2021/01/13 04:19:49;;;;;;;3.63;1.55;;;19.40;52.70;;;;;;5055371;28;20041;-63
2021/01/13 04:22:17;;;;;;;3.85;2.15;;;19.50;52.80;;;;;;5070807;28;20147;-63
2021/01/13 04:24:46;;;;;;;2.15;1.60;;;19.50;52.80;;;;;;5061723;28;20505;-63
2021/01/13 04:27:14;;;;;;;1.50;1.40;;;19.50;52.80;;;;;;5067613;28;20051;-64
2021/01/13 04:29:41;;;;;;;3.03;2.30;;;19.50;52.80;;;;;;5066598;28;20503;-64
2021/01/13 04:32:10;;;;;;;2.30;1.95;;;19.40;52.80;;;;;;5068591;28;20047;-64
2021/01/13 04:34:37;;;;;;;1.42;1.08;;;19.40;52.90;;;;;;5067920;28;20164;-66
2021/01/13 04:37:06;;;;;;;3.88;1.67;;;19.50;53.00;;;;;;5066117;28;20087;-63
2021/01/13 04:39:33;;;;;;;1.83;1.13;;;19.50;53.00;;;;;;5064744;28;20040;-64
2021/01/13 04:42:05;;;;;;;2.63;1.10;;;19.50;53.00;;;;;;5069142;28;20044;-66
2021/01/13 04:44:34;;;;;;;1.65;1.00;;;19.50;52.90;;;;;;5067027;28;20048;-64
2021/01/13 04:47:05;;;;;;;2.63;1.92;;;19.40;53.00;;;;;;5069260;28;20080;-64
2021/01/13 04:49:33;;;;;;;0.90;0.90;;;19.50;53.10;;;;;;5064449;28;20036;-64
2021/01/13 04:52:06;;;;;;;3.33;1.27;;;19.50;53.10;;;;;;5065481;28;20564;-63
2021/01/13 04:54:38;;;;;;;7.38;2.13;;;19.50;53.20;;;;;;5065400;28;20044;-63
2021/01/13 04:57:55;;;;;;;2.90;1.15;;;19.40;53.10;;;;;;5067627;28;20127;-63
2021/01/13 05:00:55;;;;;;;2.47;1.00;;;19.40;53.10;;;;;;5015381;28;20060;-64
2021/01/13 05:03:43;;;;;;;1.20;1.02;;;19.50;53.20;;;;;;5024821;28;20065;-63
2021/01/13 05:06:47;;;;;;;1.48;1.38;;;19.40;53.20;;;;;;5014663;28;20080;-62
2021/01/13 05:09:15;;;;;;;1.17;0.95;;;19.40;53.20;;;;;;5023551;28;20456;-63
2021/01/13 05:11:43;;;;;;;0.98;0.70;;;19.40;53.20;;;;;;5025652;28;20130;-63
2021/01/13 05:14:10;;;;;;;7.18;0.75;;;19.40;53.30;;;;;;5027307;28;20067;-64
2021/01/13 05:17:00;;;;;;;4.03;0.95;;;19.40;53.30;;;;;;5026204;28;20057;-63
2021/01/13 05:20:27;;;;;;;1.65;1.45;;;19.50;53.30;;;;;;5026192;28;20453;-63
2021/01/13 05:22:55;;;;;;;2.92;1.55;;;19.40;53.10;;;;;;5023680;28;20475;-63
2021/01/13 05:25:50;;;;;;;2.15;1.23;;;19.40;53.20;;;;;;5024634;28;20136;-64
2021/01/13 05:28:20;;;;;;;2.25;1.10;;;19.40;53.20;;;;;;5025621;28;20548;-64
2021/01/13 05:30:50;;;;;;;3.33;1.27;;;19.40;53.20;;;;;;5037829;28;20123;-64
2021/01/13 05:33:19;;;;;;;1.25;0.88;;;19.40;53.20;;;;;;5067602;28;20174;-62
2021/01/13 05:35:49;;;;;;;14.30;1.73;;;19.40;53.30;;;;;;5066215;28;20666;-62
2021/01/13 05:38:25;;;;;;;1.33;0.80;;;19.40;53.30;;;;;;5066937;28;20476;-62
2021/01/13 05:40:53;;;;;;;;;;;19.40;53.30;;;;;;5066355;28;20095;-62
2021/01/13 05:43:21;;;;;;;2.33;0.85;;;19.30;53.20;;;;;;5065205;28;19924;-62
2021/01/13 05:45:50;;;;;;;5.55;1.10;;;19.40;53.40;;;;;;5065280;28;20049;-63
2021/01/13 05:48:21;;;;;;;1.08;0.88;;;19.40;53.40;;;;;;5065694;28;20044;-62
2021/01/13 05:50:52;;;;;;;2.75;1.55;;;19.30;53.40;;;;;;5067202;28;20495;-62
2021/01/13 05:53:19;;;;;;;1.10;0.82;;;19.40;53.40;;;;;;5066636;28;20055;-62
2021/01/13 05:55:48;;;;;;;3.40;0.70;;;19.40;53.40;;;;;;5068077;28;20786;-63
2021/01/13 05:58:21;;;;;;;3.30;0.90;;;19.40;53.30;;;;;;5067235;28;20049;-63
2021/01/13 06:00:51;;;;;;;1.75;0.80;;;19.40;53.40;;;;;;5060072;28;20049;-63
2021/01/13 06:03:21;;;;;;;1.05;1.02;;;19.40;53.40;;;;;;5065607;28;20048;-63
2021/01/13 06:05:51;;;;;;;1.13;0.82;;;19.40;53.30;;;;;;5064798;28;20044;-63
2021/01/13 06:08:18;;;;;;;0.77;0.50;;;19.30;53.20;;;;;;5064430;28;20040;-63
2021/01/13 06:10:46;;;;;;;0.65;0.65;;;19.40;53.40;;;;;;5068008;28;20047;-62
2021/01/13 06:13:27;;;;;;;1.25;1.02;;;19.30;53.30;;;;;;5064057;28;20097;-62
2021/01/13 06:15:59;;;;;;;2.53;0.60;;;19.40;53.30;;;;;;5064673;28;20591;-63
2021/01/13 06:18:27;;;;;;;1.05;0.95;;;19.30;53.30;;;;;;5064798;28;20059;-62
2021/01/13 06:20:56;;;;;;;0.43;0.40;;;19.30;53.20;;;;;;5065034;28;20048;-63
2021/01/13 06:23:23;;;;;;;1.25;1.08;;;19.40;53.20;;;;;;5050399;28;20037;-65
2021/01/13 06:25:53;;;;;;;1.33;0.73;;;19.40;53.30;;;;;;5068029;28;20055;-63
2021/01/13 06:28:33;;;;;;;0.80;0.80;;;19.40;53.30;;;;;;5066617;28;20071;-64
2021/01/13 06:31:03;;;;;;;1.08;0.80;;;19.40;53.30;;;;;;5064073;28;20037;-64
2021/01/13 06:33:52;;;;;;;2.20;0.57;;;19.30;53.30;;;;;;5061493;28;20036;-64
2021/01/13 06:36:37;;;;;;;0.90;0.82;;;19.30;53.30;;;;;;5062845;28;20127;-64
2021/01/13 06:39:06;;;;;;;2.35;0.68;;;19.40;53.30;;;;;;5064588;28;20059;-63
2021/01/13 06:41:45;;;;;;;0.75;0.73;;;19.40;53.40;;;;;;5062386;28;20516;-63
2021/01/13 06:44:13;;;;;;;2.00;0.40;;;19.40;53.40;;;;;;5063587;28;20098;-64
2021/01/13 06:46:40;;;;;;;1.77;0.95;;;19.30;53.40;;;;;;5066705;28;20606;-63
2021/01/13 06:49:15;;;;;;;0.95;0.68;;;19.30;53.30;;;;;;5064716;28;20048;-62
2021/01/13 06:51:43;;;;;;;2.38;0.50;;;19.30;53.30;;;;;;5066131;28;20059;-64
2021/01/13 06:54:13;;;;;;;1.25;1.00;;;19.30;53.40;;;;;;5066207;28;20048;-63
2021/01/13 06:56:48;;;;;;;1.35;0.90;;;19.30;53.30;;;;;;5066217;28;20532;-64
2021/01/13 06:59:17;;;;;;;0.60;0.60;;;19.30;53.20;;;;;;5064918;28;20071;-64
2021/01/13 07:01:53;;;;;;;0.73;0.45;;;19.30;53.20;;;;;;5067262;28;20741;-63
2021/01/13 07:04:20;;;;;;;1.45;1.00;;;19.30;53.20;;;;;;5052777;28;20064;-63
2021/01/13 07:06:58;;;;;;;1.00;0.70;;;19.30;53.20;;;;;;5061315;28;20662;-63
2021/01/13 07:09:32;;;;;;;1.75;0.98;;;19.30;53.20;;;;;;5065410;28;20049;-64
2021/01/13 07:12:07;;;;;;;1.23;1.13;;;19.30;53.10;;;;;;5066153;28;20579;-63
2021/01/13 07:14:38;;;;;;;0.70;0.70;;;19.30;53.20;;;;;;5068116;28;20037;-63
2021/01/13 07:17:07;;;;;;;1.08;1.02;;;19.30;53.10;;;;;;5069191;28;21651;-64
2021/01/13 07:19:36;;;;;;;0.60;0.60;;;19.30;53.10;;;;;;5067747;28;20063;-63
2021/01/13 07:22:04;;;;;;;1.50;1.35;;;19.30;53.20;;;;;;5069970;28;20118;-63
2021/01/13 07:24:31;;;;;;;1.02;0.93;;;19.30;53.20;;;;;;5065694;28;20044;-63
2021/01/13 07:26:58;;;;;;;1.30;0.95;;;19.20;53.10;;;;;;5068245;28;20569;-63
2021/01/13 07:29:26;;;;;;;1.20;1.15;;;19.20;53.10;;;;;;5063235;28;20174;-63
2021/01/13 07:31:57;;;;;;;0.70;0.70;;;19.20;53.20;;;;;;5068763;28;20052;-63
2021/01/13 07:34:31;;;;;;;1.95;1.45;;;19.30;53.20;;;;;;5069020;28;20048;-63
2021/01/13 07:37:01;;;;;;;0.80;0.80;;;19.30;53.30;;;;;;5066972;28;20043;-63
2021/01/13 07:40:14;;;;;;;0.93;0.85;;;19.30;53.30;;;;;;5068760;28;20564;-63
2021/01/13 07:42:42;;;;;;;1.50;0.75;;;19.30;53.30;;;;;;5067661;28;20055;-63
2021/01/13 07:45:13;;;;;;;0.73;0.60;;;19.20;53.30;;;;;;5065789;28;20037;-63
2021/01/13 07:48:20;;;;;;;1.05;0.70;;;19.20;53.30;;;;;;5068643;28;20435;-64
2021/01/13 07:50:50;;;;;;;1.08;0.68;;;19.20;53.20;;;;;;5067980;28;20056;-64
2021/01/13 07:53:24;;;;;;;1.50;0.60;;;19.20;53.30;;;;;;5068982;28;20158;-64
2021/01/13 07:55:59;;;;;;;1.08;0.80;;;19.20;53.30;;;;;;5071136;28;20036;-64
2021/01/13 07:58:29;;;;;;;1.00;0.45;;;19.20;53.30;;;;;;5066445;28;20044;-64
2021/01/13 08:01:05;;;;;;;0.77;0.70;;;19.20;53.30;;;;;;5066789;28;20055;-64
2021/01/13 08:03:57;;;;;;;;;;;19.20;53.30;;;;;;5068761;28;20051;-64
2021/01/13 08:06:34;;;;;;;3.10;0.75;;;19.10;53.20;;;;;;5003854;28;19957;-64
2021/01/13 08:09:15;;;;;;;;;;;19.10;53.40;;;;;;5004928;28;20542;-64
2021/01/13 08:12:24;;;;;;;1.60;0.68;;;19.10;53.30;;;;;;5001991;28;20007;-64
2021/01/13 08:15:44;;;;;;;1.23;0.50;;;19.10;53.50;;;;;;5002220;28;20141;-64
2021/01/13 08:18:49;;;;;;;7.35;0.77;;;19.10;53.50;;;;;;5003270;28;20682;-64
2021/01/13 08:21:24;;;;;;;1.20;0.25;;;19.10;53.60;;;;;;5004565;28;20420;-64
2021/01/13 08:23:58;;;;;;;0.68;0.40;;;19.10;53.60;;;;;;5002478;28;20236;-64
2021/01/13 08:26:26;;;;;;;1.50;0.45;;;19.10;53.60;;;;;;5000532;28;20438;-64
2021/01/13 08:28:58;;;;;;;1.83;0.30;;;19.10;53.60;;;;;;5000533;28;20089;-64
2021/01/13 08:31:26;;;;;;;1.33;0.68;;;19.10;54.00;;;;;;5005573;28;20135;-63
2021/01/13 08:34:04;;;;;;;0.90;0.43;;;19.10;54.00;;;;;;5002032;28;20046;-64
2021/01/13 08:36:31;;;;;;;0.52;0.50;;;19.20;54.00;;;;;;5005860;28;20434;-62
2021/01/13 08:39:10;;;;;;;2.40;0.68;;;19.20;54.10;;;;;;5005752;28;20042;-64
2021/01/13 08:41:37;;;;;;;0.95;0.60;;;19.20;54.60;;;;;;5000220;28;20517;-63
2021/01/13 08:44:08;;;;;;;2.38;0.45;;;19.10;53.90;;;;;;5067407;28;20044;-65
2021/01/13 08:46:46;;;;;;;1.23;0.90;;;19.20;53.90;;;;;;5070625;28;20057;-64
2021/01/13 08:49:25;;;;;;;14.98;0.70;;;19.20;53.90;;;;;;5056184;28;20098;-62
2021/01/13 08:52:19;;;;;;;0.95;0.60;;;19.20;53.80;;;;;;5063290;28;20041;-64
2021/01/13 08:55:15;;;;;;;1.90;0.30;;;19.20;53.90;;;;;;5065898;28;20044;-64
2021/01/13 08:57:51;;;;;;;0.70;0.40;;;19.20;54.10;;;;;;5065836;28;20531;-64
2021/01/13 09:00:19;;;;;;;2.58;0.73;;;19.20;54.20;;;;;;5067299;28;20052;-65
2021/01/13 09:03:03;;;;;;;2.83;0.47;;;19.20;54.20;;;;;;5065554;28;20060;-63
2021/01/13 09:05:31;;;;;;;0.28;0.25;;;19.20;54.30;;;;;;5068336;28;20049;-63
2021/01/13 09:08:01;;;;;;;0.95;0.95;;;19.20;54.30;;;;;;5067381;28;20504;-65
2021/01/13 09:10:46;;;;;;;0.60;0.30;;;19.20;54.40;;;;;;5069283;28;20123;-62
2021/01/13 09:13:36;;;;;;;1.55;0.40;;;19.20;54.40;;;;;;5067126;28;20512;-62
2021/01/13 09:16:31;;;;;;;0.50;0.10;;;19.20;54.40;;;;;;5085563;28;20060;-64
2021/01/13 09:18:59;;;;;;;0.52;0.47;;;19.20;54.50;;;;;;5064082;28;20049;-64
2021/01/13 09:21:31;;;;;;;0.50;0.43;;;19.20;54.60;;;;;;5065064;28;20080;-63
2021/01/13 09:23:59;;;;;;;0.60;0.25;;;19.20;54.60;;;;;;5067957;28;20041;-63
2021/01/13 09:26:32;;;;;;;1.00;1.00;;;19.20;54.60;;;;;;5068245;28;20052;-63
2021/01/13 09:29:01;;;;;;;0.10;0.10;;;19.20;54.70;;;;;;5068528;28;20599;-63
2021/01/13 09:31:28;;;;;;;0.43;0.20;;;19.20;55.00;;;;;;5068700;28;20504;-63
2021/01/13 09:33:57;;;;;;;0.25;0.25;;;19.20;55.00;;;;;;5068039;28;20500;-63
2021/01/13 09:36:24;;;;;;;0.85;0.25;;;19.20;54.80;;;;;;5066808;28;20124;-63
2021/01/13 09:39:11;;;;;;;0.47;0.25;;;19.20;54.80;;;;;;5067932;28;20428;-63
2021/01/13 09:41:41;;;;;;;1.00;0.32;;;19.30;54.90;;;;;;5067630;28;20424;-63
2021/01/13 09:44:10;;;;;;;1.00;0.43;;;19.20;54.80;;;;;;5068333;28;20053;-64
2021/01/13 09:46:37;;;;;;;2.03;0.30;;;19.30;54.90;;;;;;5068799;28;20586;-63
2021/01/13 09:49:06;;;;;;;0.63;0.10;;;19.30;54.80;;;;;;5067092;28;20110;-65
2021/01/13 09:51:34;;;;;;;0.17;0.10;;;19.20;54.80;;;;;;5057774;28;20086;-64
2021/01/13 09:54:03;;;;;;;1.33;0.15;;;19.30;54.90;;;;;;5060015;28;20115;-64
2021/01/13 09:56:31;;;;;;;0.20;0.10;;;19.30;54.90;;;;;;5061412;28;20127;-63
2021/01/13 09:59:02;;;;;;;0.88;0.50;;;19.30;54.90;;;;;;5062866;28;20050;-65
2021/01/13 10:01:30;;;;;;;0.40;0.25;;;19.30;54.90;;;;;;5056155;28;20508;-64
2021/01/13 10:04:01;;;;;;;1.35;0.40;;;19.30;54.90;;;;;;5054338;28;20040;-62
2021/01/13 10:06:29;;;;;;;0.32;0.17;;;19.30;54.90;;;;;;5051701;28;20110;-63
2021/01/13 10:08:57;;;;;;;0.95;0.20;;;19.30;54.90;;;;;;5048631;28;20536;-64
2021/01/13 10:11:27;;;;;;;1.33;0.20;;;19.30;55.10;;;;;;5051117;28;20055;-64
2021/01/13 10:13:59;;;;;;;0.45;0.20;;;19.30;55.10;;;;;;5049407;28;20040;-64
2021/01/13 10:16:27;;;;;;;8.70;7.85;;;19.30;55.00;;;;;;5050110;28;20102;-63
2021/01/13 10:18:56;;;;;;;10.25;7.78;;;19.30;55.00;;;;;;5051036;28;20047;-63
2021/01/13 10:21:24;;;;;;;2.97;2.88;;;19.30;55.70;;;;;;5056071;28;20045;-63
2021/01/13 10:23:51;;;;;;;6.10;3.15;;;19.30;55.70;;;;;;5057310;28;20539;-65
2021/01/13 10:26:18;;;;;;;3.10;2.95;;;19.30;55.80;;;;;;5056083;28;20048;-65
2021/01/13 10:28:46;;;;;;;3.00;2.70;;;19.30;55.80;;;;;;5061842;28;20164;-64
2021/01/13 10:31:24;;;;;;;1.98;1.88;;;19.30;55.80;;;;;;5053762;28;20142;-65
2021/01/13 10:33:52;;;;;;;2.58;2.22;;;19.40;55.90;;;;;;5049787;28;20045;-63
2021/01/13 10:36:35;;;;;;;4.50;1.67;;;19.40;55.90;;;;;;5058004;28;20044;-64
2021/01/13 10:39:21;;;;;;;5.88;0.95;;;19.40;55.80;;;;;;5066042;28;20036;-64
2021/01/13 10:41:50;;;;;;;1.88;1.77;;;19.40;55.60;;;;;;5067221;28;20057;-65
2021/01/13 10:44:18;;;;;;;1.23;0.57;;;19.30;55.40;;;;;;5067116;28;20040;-65
2021/01/13 10:46:57;;;;;;;3.95;0.80;;;19.40;55.40;;;;;;5068703;28;20048;-66
2021/01/13 10:49:30;;;;;;;0.93;0.60;;;19.30;55.30;;;;;;5067342;28;20049;-65
2021/01/13 10:51:58;;;;;;;0.73;0.40;;;19.30;55.30;;;;;;5064533;28;20049;-65
2021/01/13 10:54:27;;;;;;;0.47;0.30;;;19.30;55.30;;;;;;5063583;28;20564;-65
2021/01/13 10:56:59;;;;;;;0.30;0.30;;;19.30;55.20;;;;;;5066904;28;20045;-65
2021/01/13 10:59:26;;;;;;;0.70;0.40;;;19.30;55.20;;;;;;5065916;28;20041;-66
2021/01/13 11:01:59;;;;;;;0.80;0.35;;;19.30;55.20;;;;;;5068123;28;20056;-64
2021/01/13 11:04:28;;;;;;;0.73;0.43;;;19.30;55.20;;;;;;5067726;28;20056;-64
2021/01/13 11:06:57;;;;;;;1.35;0.70;;;19.30;55.10;;;;;;5066220;28;20094;-64
2021/01/13 11:09:25;;;;;;;0.30;0.28;;;19.30;55.10;;;;;;5060728;28;20143;-65
2021/01/13 11:11:53;;;;;;;1.17;0.20;;;19.30;55.20;;;;;;5066669;28;20025;-64
2021/01/13 11:14:35;;;;;;;2.58;0.20;;;19.30;55.20;;;;;;5066596;28;20044;-65
2021/01/13 11:17:05;;;;;;;0.40;0.22;;;19.30;55.20;;;;;;5066500;28;20405;-65
2021/01/13 11:19:33;;;;;;;0.43;0.10;;;19.20;55.10;;;;;;5067713;28;20097;-65
2021/01/13 11:22:01;;;;;;;0.30;0.20;;;19.20;55.10;;;;;;5065787;28;20101;-65
2021/01/13 11:24:40;;;;;;;0.75;0.20;;;19.20;55.10;;;;;;5067169;28;20044;-64
2021/01/13 11:27:10;;;;;;;0.95;0.20;;;19.20;55.10;;;;;;5066453;28;20467;-64
2021/01/13 11:29:39;;;;;;;0.68;0.10;;;19.20;55.80;;;;;;5066081;28;20516;-64
2021/01/13 11:32:12;;;;;;;1.33;0.10;;;19.20;55.30;;;;;;5066102;28;20053;-64
2021/01/13 11:34:39;;;;;;;0.40;0.20;;;19.20;55.30;;;;;;5066373;28;20457;-64
2021/01/13 11:37:47;;;;;;;0.47;0.13;;;19.20;55.30;;;;;;5065937;28;20048;-63
2021/01/13 11:40:35;;;;;;;1.83;0.10;;;19.20;55.20;;;;;;5066860;28;20059;-64
2021/01/13 11:43:25;;;;;;;0.90;0.32;;;19.20;55.90;;;;;;5066268;28;20072;-64
2021/01/13 11:46:09;;;;;;;0.22;0.10;;;19.20;55.30;;;;;;5056815;28;20416;-64
2021/01/13 11:49:03;;;;;;;0.65;0.10;;;19.20;55.30;;;;;;5065896;28;20060;-63
2021/01/13 11:51:33;;;;;;;2.25;0.10;;;19.20;55.30;;;;;;5065928;28;20128;-63
2021/01/13 11:54:01;;;;;;;1.55;0.10;;;19.10;55.30;;;;;;5060187;28;20125;-62
2021/01/13 11:56:29;;;;;;;0.63;0.20;;;19.20;55.30;;;;;;5059897;28;20045;-63
2021/01/13 11:58:56;;;;;;;0.45;0.10;;;19.20;55.30;;;;;;5063567;28;20052;-63
2021/01/13 12:01:25;;;;;;;0.57;0.10;;;19.10;55.20;;;;;;5070132;28;20049;-64
2021/01/13 12:04:01;;;;;;;0.10;0.00;;;19.10;55.20;;;;;;5068120;28;20072;-64
2021/01/13 12:06:28;;;;;;;0.40;0.08;;;19.20;55.30;;;;;;5062785;28;20568;-64
2021/01/13 12:08:55;;;;;;;0.73;0.05;;;19.10;55.20;;;;;;5068706;28;20115;-63
2021/01/13 12:11:22;;;;;;;7.00;0.35;;;19.10;55.20;;;;;;5069974;28;20095;-64
2021/01/13 12:13:51;;;;;;;0.20;0.10;;;19.10;55.10;;;;;;5071146;28;20048;-64
2021/01/13 12:16:19;;;;;;;1.15;0.10;;;19.10;55.00;;;;;;5067671;28;20052;-64
2021/01/13 12:18:49;;;;;;;5.43;0.10;;;19.10;55.00;;;;;;5069713;28;20526;-64
2021/01/13 12:21:28;;;;;;;2.25;0.00;;;19.10;54.90;;;;;;5069263;28;20135;-63
2021/01/13 12:23:56;;;;;;;0.30;0.00;;;19.10;54.90;;;;;;5069622;28;20127;-63
2021/01/13 12:26:29;;;;;;;0.45;0.10;;;19.10;54.90;;;;;;5065756;28;20053;-63
2021/01/13 12:28:57;;;;;;;1.73;0.77;;;19.10;54.80;;;;;;5070932;28;20102;-64
2021/01/13 12:31:33;;;;;;;2.95;0.10;;;19.10;54.80;;;;;;5070026;28;20128;-65
2021/01/13 12:34:00;;;;;;;0.38;0.00;;;19.10;54.80;;;;;;5068732;28;20052;-64
2021/01/13 12:36:29;;;;;;;0.95;0.00;;;19.10;54.70;;;;;;5068884;28;20040;-64
2021/01/13 12:38:57;;;;;;;1.10;0.38;;;19.10;54.80;;;;;;5069684;28;20063;-65
2021/01/13 12:41:26;;;;;;;0.38;0.03;;;19.10;54.70;;;;;;5067740;28;20106;-64
2021/01/13 12:43:53;;;;;;;0.90;0.10;;;19.10;54.80;;;;;;5070980;28;20064;-65
2021/01/13 12:46:25;;;;;;;0.35;0.10;;;19.10;54.70;;;;;;5066407;28;20045;-64
2021/01/13 12:48:52;;;;;;;2.50;0.10;;;19.10;54.70;;;;;;5068481;28;20052;-64
2021/01/13 12:51:18;;;;;;;0.20;0.10;;;19.10;54.70;;;;;;5068963;28;20109;-63
2021/01/13 12:53:46;;;;;;;1.20;0.10;;;19.10;54.70;;;;;;5069367;28;20045;-65
2021/01/13 12:56:24;;;;;;;0.10;0.00;;;19.10;54.80;;;;;;5068741;28;20052;-65
2021/01/13 12:58:50;;;;;;;0.68;0.10;;;19.00;54.70;;;;;;5068646;28;20056;-64
2021/01/13 13:01:18;;;;;;;0.90;0.10;;;19.10;54.80;;;;;;5064823;28;20140;-64
2021/01/13 13:03:45;;;;;;;3.92;0.17;;;19.00;54.80;;;;;;5068454;28;20048;-64
2021/01/13 13:06:13;;;;;;;1.42;0.00;;;19.00;54.80;;;;;;5055868;28;20045;-64
2021/01/13 13:08:40;;;;;;;1.08;0.03;;;19.00;54.90;;;;;;5068107;28;20091;-64
2021/01/13 13:11:11;;;;;;;2.33;0.10;;;19.00;54.90;;;;;;5068304;28;20460;-64
2021/01/13 13:13:38;;;;;;;0.20;0.00;;;19.10;55.00;;;;;;5069413;28;20580;-64
2021/01/13 13:16:09;;;;;;;0.10;0.03;;;19.00;54.90;;;;;;5067507;28;20048;-64
2021/01/13 13:18:37;;;;;;;2.40;0.10;;;19.00;55.00;;;;;;5068413;28;20138;-64